LTFJ/SAW METAR and TAF weather

Enter ICAO airport designator
Station Type Date Time Source
LTFJ METAR 2021/03/06 05:20 UTC NOAA

LTFJ 060520Z 27009KT 9999 FEW040 BKN100 13/03 Q1019 NOSIG


Station Type Date Time Source
LTFJ Decoded METAR 2021/03/06 05:20 UTC NOAA

Istanbul / Sabiha Gokcen, Turkey (LTFJ) 40-53-55N 029-18-33E
Mar 06, 2021 - 12:20 AM EST / 2021.03.06 0520 UTC
Wind: from the W (270 degrees) at 10 MPH (9 KT):0
Visibility: greater than 7 mile(s):0
Sky conditions: mostly cloudy
Temperature: 55 F (13 C)
Dew Point: 37 F (3 C)
Relative Humidity: 50%
Pressure (altimeter): 30.09 in. Hg (1019 hPa)
ob: LTFJ 060520Z 27009KT 9999 FEW040 BKN100 13/03 Q1019 NOSIG
cycle: 5

Station Type Date Time Source
LTFJ TAF 2021/03/06 06:03 UTC NOAA

TAF LTFJ 060440Z 0606/0706 27012KT 9999 SCT035 BKN100
TEMPO 0606/0610 32015G26KT
BECMG 0610/0613 01018KT -SHRA SCT009 BKN025 PROB40
TEMPO 0613/0617 03019G30KT 4000 SHRA FEW020CB BKN025
BECMG 0617/0620 03008KT

Example: see airport list